createdAt,value
2017-05-17T00:00:01.541Z,99.50
2017-05-17T00:02:29.892Z,99.30
2017-05-17T00:04:58.858Z,99.10
2017-05-17T00:07:27.531Z,99.10
2017-05-17T00:18:35.700Z,99.10
2017-05-17T00:21:04.771Z,99.00
2017-05-17T00:23:33.120Z,99.10
2017-05-17T00:26:01.629Z,99.20
2017-05-17T00:28:29.961Z,99.10
2017-05-17T00:30:58.299Z,99.00
2017-05-17T00:33:26.811Z,99.10
2017-05-17T00:36:06.865Z,99.10
2017-05-17T00:38:47.307Z,99.10
2017-05-17T00:41:27.540Z,99.20
2017-05-17T00:44:07.569Z,99.30
2017-05-17T00:46:47.869Z,99.20
2017-05-17T00:49:28.868Z,99.20
2017-05-17T00:52:07.961Z,99.20
2017-05-17T00:54:36.483Z,99.20
2017-05-17T00:57:04.827Z,99.20
2017-05-17T00:59:33.222Z,99.20
2017-05-17T01:02:01.580Z,99.00
2017-05-17T01:04:29.913Z,99.10
2017-05-17T01:06:58.250Z,98.90
2017-05-17T01:09:26.656Z,99.30
2017-05-17T01:11:55.036Z,99.00
2017-05-17T01:14:23.395Z,99.00
2017-05-17T01:16:51.820Z,99.00
2017-05-17T01:19:20.185Z,98.90
2017-05-17T01:21:48.528Z,99.00
2017-05-17T01:24:17.088Z,99.10
2017-05-17T01:26:46.168Z,99.10
2017-05-17T01:29:14.520Z,99.10
2017-05-17T01:31:42.989Z,99.10
2017-05-17T01:34:11.334Z,99.40
2017-05-17T01:36:40.414Z,99.00
2017-05-17T01:39:08.813Z,99.00
2017-05-17T01:41:37.177Z,99.00
2017-05-17T01:44:06.256Z,98.80
2017-05-17T01:46:34.759Z,98.80
2017-05-17T01:49:03.913Z,98.80
2017-05-17T01:51:32.284Z,98.90
2017-05-17T01:54:00.808Z,98.80
2017-05-17T01:56:29.893Z,98.80
2017-05-17T01:58:58.221Z,98.80
2017-05-17T02:01:26.676Z,98.80
2017-05-17T02:03:55.093Z,98.70
2017-05-17T02:06:23.445Z,98.80
2017-05-17T02:08:51.833Z,98.80
2017-05-17T02:11:20.171Z,98.80
2017-05-17T02:13:48.500Z,98.60
2017-05-17T02:16:17.258Z,98.70
2017-05-17T02:18:45.581Z,98.80
2017-05-17T02:21:13.932Z,98.80
2017-05-17T02:23:42.329Z,98.60
2017-05-17T02:26:10.656Z,98.90
2017-05-17T02:28:38.991Z,98.50
2017-05-17T02:31:08.334Z,98.50
2017-05-17T02:33:36.668Z,98.70
2017-05-17T02:36:05.002Z,98.60
2017-05-17T02:38:33.485Z,98.60
2017-05-17T02:41:01.834Z,98.60
2017-05-17T02:43:30.901Z,98.60
2017-05-17T02:45:59.623Z,98.50
2017-05-17T02:48:28.697Z,98.50
2017-05-17T02:50:57.048Z,98.60
2017-05-17T02:53:25.464Z,98.50
2017-05-17T02:55:54.614Z,98.60
2017-05-17T02:58:22.987Z,98.60
2017-05-17T03:00:51.515Z,98.40
2017-05-17T03:03:19.864Z,98.20
2017-05-17T03:05:48.241Z,98.30
2017-05-17T03:08:16.822Z,98.20
2017-05-17T03:10:45.175Z,98.20
2017-05-17T03:13:13.747Z,98.20
2017-05-17T03:15:42.349Z,98.20
2017-05-17T03:18:10.684Z,98.10
2017-05-17T03:20:39.017Z,98.10
2017-05-17T03:23:07.500Z,97.90
2017-05-17T03:25:35.817Z,97.90
2017-05-17T03:28:04.902Z,98.00
2017-05-17T03:30:33.676Z,97.90
2017-05-17T03:33:02.029Z,98.00
2017-05-17T03:35:31.211Z,98.00
2017-05-17T03:37:59.589Z,98.00
2017-05-17T03:40:27.920Z,97.70
2017-05-17T03:42:56.285Z,97.80
2017-05-17T03:45:24.744Z,97.60
2017-05-17T03:47:53.212Z,97.70
2017-05-17T03:50:21.536Z,97.60
2017-05-17T03:52:49.925Z,97.60
2017-05-17T03:55:19.003Z,97.60
2017-05-17T03:57:47.325Z,97.50
2017-05-17T04:00:15.694Z,97.40
2017-05-17T04:02:44.019Z,97.50
2017-05-17T04:05:12.340Z,97.60
2017-05-17T04:07:41.635Z,97.60
2017-05-17T04:10:09.952Z,97.50
2017-05-17T04:12:38.275Z,97.50
2017-05-17T04:15:06.920Z,97.40
2017-05-17T04:17:35.297Z,97.30
2017-05-17T04:20:03.620Z,97.40
2017-05-17T04:22:32.064Z,97.00
2017-05-17T04:25:00.400Z,97.10
2017-05-17T04:27:28.731Z,97.20
2017-05-17T04:29:57.385Z,97.50
2017-05-17T04:32:25.737Z,97.50
2017-05-17T04:34:54.071Z,97.90
2017-05-17T04:37:22.830Z,97.70
2017-05-17T04:39:51.164Z,98.00
2017-05-17T04:42:20.283Z,97.70
2017-05-17T04:44:48.641Z,98.00
2017-05-17T04:47:16.974Z,97.40
2017-05-17T04:49:45.312Z,97.60
2017-05-17T04:52:13.847Z,97.50
2017-05-17T04:54:42.173Z,97.80
2017-05-17T04:57:10.519Z,97.40
2017-05-17T04:59:38.888Z,97.50
2017-05-17T05:02:07.211Z,97.30
2017-05-17T05:04:35.564Z,97.50
2017-05-17T05:07:05.816Z,97.40
2017-05-17T05:09:34.348Z,97.40
2017-05-17T05:12:02.673Z,97.30
2017-05-17T05:14:31.179Z,97.20
2017-05-17T05:16:59.504Z,97.20
2017-05-17T05:19:27.861Z,96.90
2017-05-17T05:21:56.222Z,96.90
2017-05-17T05:24:24.554Z,97.10
2017-05-17T05:26:52.891Z,97.30
2017-05-17T05:29:21.385Z,97.20
2017-05-17T05:31:50.160Z,97.30
2017-05-17T05:34:18.483Z,97.10
2017-05-17T05:36:47.051Z,97.00
2017-05-17T05:39:16.128Z,97.10
2017-05-17T05:41:44.455Z,97.00
2017-05-17T05:44:12.957Z,96.90
2017-05-17T05:46:41.288Z,97.00
2017-05-17T05:49:09.608Z,96.90
2017-05-17T05:51:38.127Z,96.90
2017-05-17T05:54:07.205Z,96.90
2017-05-17T05:56:35.537Z,96.80
2017-05-17T05:59:04.100Z,96.80
2017-05-17T06:01:32.445Z,97.00
2017-05-17T06:04:00.784Z,97.00
2017-05-17T06:06:29.498Z,96.90
2017-05-17T06:08:57.843Z,96.90
2017-05-17T06:11:26.174Z,97.00
2017-05-17T06:13:55.289Z,96.90
2017-05-17T06:16:23.621Z,96.10
2017-05-17T06:18:51.941Z,96.60
2017-05-17T06:21:20.308Z,96.70
2017-05-17T06:23:49.415Z,96.60
2017-05-17T06:26:17.757Z,96.70
2017-05-17T06:28:46.994Z,96.70
2017-05-17T06:31:15.332Z,96.70
2017-05-17T06:33:43.660Z,96.60
2017-05-17T06:36:12.336Z,96.40
2017-05-17T06:38:40.706Z,96.30
2017-05-17T06:41:09.771Z,96.20
2017-05-17T06:43:38.380Z,96.30
2017-05-17T06:46:07.464Z,95.80
2017-05-17T06:48:36.530Z,95.80
2017-05-17T06:51:05.247Z,95.90
2017-05-17T06:53:33.565Z,96.10
2017-05-17T06:56:01.892Z,95.90
2017-05-17T06:58:30.490Z,95.70
2017-05-17T07:00:59.558Z,95.50
2017-05-17T07:03:27.889Z,95.70
2017-05-17T07:05:56.455Z,95.30
2017-05-17T07:08:24.795Z,95.60
2017-05-17T07:10:53.130Z,95.20
2017-05-17T07:13:21.891Z,95.10
2017-05-17T07:15:50.213Z,95.00
2017-05-17T07:18:18.536Z,95.00
2017-05-17T07:20:47.676Z,94.80
2017-05-17T07:23:15.996Z,95.00
2017-05-17T07:25:44.327Z,94.70
2017-05-17T07:28:12.691Z,94.70
2017-05-17T07:30:41.024Z,94.60
2017-05-17T07:33:09.358Z,94.50
2017-05-17T07:35:37.744Z,94.40
2017-05-17T07:38:06.077Z,94.60
2017-05-17T07:40:35.148Z,94.50
2017-05-17T07:43:03.524Z,94.70
2017-05-17T07:45:31.867Z,94.80
2017-05-17T07:48:00.196Z,94.80
2017-05-17T07:50:28.791Z,94.30
2017-05-17T07:52:57.121Z,94.60
2017-05-17T07:55:25.441Z,94.60
2017-05-17T07:57:54.847Z,94.60
2017-05-17T08:00:23.184Z,94.60
2017-05-17T08:02:51.511Z,94.90
2017-05-17T08:05:20.384Z,94.70
2017-05-17T08:07:49.440Z,94.50
2017-05-17T08:10:17.782Z,94.70
2017-05-17T08:12:46.469Z,95.00
2017-05-17T08:15:14.803Z,95.00
2017-05-17T08:17:43.194Z,94.60
2017-05-17T08:20:12.292Z,94.00
2017-05-17T08:22:41.372Z,94.00
2017-05-17T08:25:10.694Z,94.30
2017-05-17T08:27:39.077Z,92.90
2017-05-17T08:30:07.420Z,93.00
2017-05-17T08:32:35.765Z,92.40
2017-05-17T08:35:04.323Z,92.20
2017-05-17T08:37:32.657Z,91.70
2017-05-17T08:40:00.984Z,91.40
2017-05-17T08:42:29.759Z,91.40
2017-05-17T08:44:58.093Z,91.10
2017-05-17T08:47:26.436Z,91.30
2017-05-17T08:49:54.966Z,91.10
2017-05-17T08:52:23.303Z,90.70
2017-05-17T08:54:51.628Z,91.00
2017-05-17T08:57:20.937Z,91.20
2017-05-17T08:59:49.283Z,90.50
2017-05-17T09:02:17.616Z,90.10
2017-05-17T09:04:46.391Z,90.60
2017-05-17T09:07:14.732Z,90.30
2017-05-17T09:09:43.059Z,89.40
2017-05-17T09:12:11.535Z,90.00
2017-05-17T09:14:39.864Z,88.60
2017-05-17T09:17:08.213Z,88.00
2017-05-17T09:19:36.672Z,88.70
2017-05-17T09:22:05.005Z,89.40
2017-05-17T09:24:33.351Z,87.60
2017-05-17T09:27:01.897Z,87.90
2017-05-17T09:29:30.968Z,88.20
2017-05-17T09:31:59.292Z,87.90
2017-05-17T09:34:27.976Z,87.50
2017-05-17T09:36:56.301Z,83.40
2017-05-17T09:39:24.641Z,84.00
2017-05-17T09:41:53.166Z,84.70
2017-05-17T09:44:21.487Z,84.30
2017-05-17T09:46:49.813Z,83.80
2017-05-17T09:49:18.449Z,81.90
2017-05-17T09:51:46.876Z,80.60
2017-05-17T09:54:15.208Z,80.70
2017-05-17T09:56:43.671Z,80.10
2017-05-17T09:59:12.062Z,80.80
2017-05-17T10:01:40.877Z,81.50
2017-05-17T10:04:09.377Z,81.40
2017-05-17T10:06:37.704Z,82.60
2017-05-17T10:09:06.023Z,83.00
2017-05-17T10:11:34.484Z,82.60
2017-05-17T10:14:02.814Z,80.20
2017-05-17T10:16:31.152Z,82.10
2017-05-17T10:18:59.672Z,81.80
2017-05-17T10:21:28.796Z,82.90
2017-05-17T10:23:57.121Z,83.20
2017-05-17T10:26:25.736Z,83.60
2017-05-17T10:28:54.822Z,83.40
2017-05-17T10:31:23.892Z,83.20
2017-05-17T10:33:52.499Z,82.30
2017-05-17T10:36:21.584Z,83.50
2017-05-17T10:38:49.908Z,83.10
2017-05-17T10:41:18.283Z,83.50
2017-05-17T10:43:46.649Z,81.90
2017-05-17T10:46:14.996Z,83.40
2017-05-17T10:48:43.373Z,82.00
2017-05-17T10:51:11.698Z,82.20
2017-05-17T10:53:45.348Z,82.10
2017-05-17T10:56:13.685Z,82.30
2017-05-17T10:58:42.050Z,81.10
2017-05-17T11:01:10.548Z,80.00
2017-05-17T11:03:38.886Z,81.00
2017-05-17T11:06:07.957Z,81.10
2017-05-17T11:08:37.207Z,80.70
2017-05-17T11:11:06.189Z,79.70
2017-05-17T11:13:34.582Z,80.80
2017-05-17T11:16:03.236Z,78.80
2017-05-17T11:18:31.583Z,78.60
2017-05-17T11:20:59.910Z,79.50
2017-05-17T11:23:28.373Z,80.10
2017-05-17T11:25:56.694Z,80.40
2017-05-17T11:28:25.032Z,81.00
2017-05-17T11:30:53.441Z,79.20
2017-05-17T11:33:21.785Z,77.80
2017-05-17T11:35:51.168Z,77.90
2017-05-17T11:38:20.311Z,77.70
2017-05-17T11:40:48.675Z,76.60
2017-05-17T11:43:16.992Z,77.00
2017-05-17T11:45:45.440Z,77.90
2017-05-17T11:48:13.833Z,77.50
2017-05-17T11:50:42.194Z,76.00
2017-05-17T11:53:10.849Z,75.20
2017-05-17T11:55:40.006Z,76.10
2017-05-17T11:58:08.332Z,74.50
2017-05-17T12:00:37.438Z,75.30
2017-05-17T12:03:05.765Z,76.00
2017-05-17T12:05:34.087Z,74.00
2017-05-17T12:08:02.553Z,72.40
2017-05-17T12:10:31.618Z,71.50
2017-05-17T12:13:00.911Z,71.20
2017-05-17T12:15:29.432Z,72.70
2017-05-17T12:17:59.201Z,73.90
2017-05-17T12:20:27.524Z,75.20
2017-05-17T12:22:56.929Z,73.70
2017-05-17T12:25:25.993Z,74.20
2017-05-17T12:27:54.306Z,73.30
2017-05-17T12:30:22.695Z,73.90
2017-05-17T12:32:51.020Z,73.30
2017-05-17T12:35:19.336Z,73.10
2017-05-17T12:37:47.780Z,71.80
2017-05-17T12:40:16.105Z,71.60
2017-05-17T12:42:44.431Z,72.70
2017-05-17T12:45:12.943Z,70.80
2017-05-17T12:47:42.032Z,71.60
2017-05-17T12:50:10.349Z,70.60
2017-05-17T12:52:38.704Z,70.90
2017-05-17T12:55:07.766Z,71.40
2017-05-17T12:57:36.080Z,70.10
2017-05-17T13:00:04.435Z,71.30
2017-05-17T13:02:32.764Z,71.20
2017-05-17T13:05:01.077Z,69.90
2017-05-17T13:07:29.535Z,71.10
2017-05-17T13:09:57.855Z,71.90
2017-05-17T13:12:26.865Z,71.90
2017-05-17T13:14:55.412Z,70.90
2017-05-17T13:17:23.732Z,71.30
2017-05-17T13:19:52.174Z,72.10
2017-05-17T13:22:20.950Z,70.40
2017-05-17T13:24:49.286Z,70.80
2017-05-17T13:27:17.641Z,69.50
2017-05-17T13:29:46.211Z,70.20
2017-05-17T13:32:14.549Z,70.00
2017-05-17T13:34:42.916Z,68.20
2017-05-17T13:37:11.796Z,68.30
2017-05-17T13:39:42.866Z,67.60
2017-05-17T13:42:12.453Z,68.00
2017-05-17T13:44:40.951Z,66.50
2017-05-17T13:47:09.268Z,66.80
2017-05-17T13:49:38.367Z,67.10
2017-05-17T13:52:07.432Z,68.40
2017-05-17T13:54:35.753Z,67.30
2017-05-17T13:57:04.627Z,66.00
2017-05-17T13:59:33.682Z,66.40
2017-05-17T14:02:02.015Z,65.80
2017-05-17T14:04:31.295Z,66.20
2017-05-17T14:07:00.349Z,65.40
2017-05-17T14:09:28.665Z,65.30
2017-05-17T14:11:57.790Z,66.00
2017-05-17T14:14:26.124Z,66.20
2017-05-17T14:16:54.442Z,65.00
2017-05-17T14:19:23.741Z,64.30
2017-05-17T14:21:52.142Z,65.20
2017-05-17T14:24:20.510Z,64.60
2017-05-17T14:26:48.869Z,63.60
2017-05-17T14:29:17.193Z,65.20
2017-05-17T14:31:45.628Z,64.70
2017-05-17T14:34:14.391Z,65.10
2017-05-17T14:36:43.469Z,64.80
2017-05-17T14:39:11.904Z,64.30
2017-05-17T14:41:40.448Z,63.50
2017-05-17T14:44:11.213Z,64.70
2017-05-17T14:46:39.582Z,65.90
2017-05-17T14:49:07.928Z,66.50
2017-05-17T14:51:36.249Z,66.50
2017-05-17T14:54:04.807Z,65.40
2017-05-17T14:56:33.149Z,65.40
2017-05-17T14:59:01.516Z,65.50
2017-05-17T15:01:29.872Z,65.00
2017-05-17T15:03:58.191Z,64.80
2017-05-17T15:06:26.678Z,65.00
2017-05-17T15:08:55.068Z,65.80
2017-05-17T15:11:24.124Z,65.30
2017-05-17T15:13:52.449Z,65.80
2017-05-17T15:16:21.853Z,65.80
2017-05-17T15:18:50.909Z,65.00
2017-05-17T15:21:19.223Z,65.80
2017-05-17T15:23:48.359Z,65.40
2017-05-17T15:26:16.679Z,65.60
2017-05-17T15:28:45.007Z,66.30
2017-05-17T15:31:13.553Z,66.90
2017-05-17T15:33:42.614Z,67.10
2017-05-17T15:36:10.937Z,67.10
2017-05-17T15:38:39.298Z,66.20
2017-05-17T15:41:08.356Z,66.80
2017-05-17T15:43:36.677Z,67.00
2017-05-17T15:46:05.968Z,67.80
2017-05-17T15:48:34.289Z,67.50
2017-05-17T15:51:02.625Z,67.00
2017-05-17T15:53:31.902Z,68.30
2017-05-17T15:56:00.348Z,67.70
2017-05-17T15:58:28.687Z,68.80
2017-05-17T16:00:57.984Z,68.50
2017-05-17T16:03:27.046Z,69.30
2017-05-17T16:05:55.395Z,70.00
2017-05-17T16:08:24.123Z,70.00
2017-05-17T16:10:53.236Z,69.00
2017-05-17T16:13:22.309Z,69.50
2017-05-17T16:15:51.032Z,69.40
2017-05-17T16:18:19.360Z,70.70
2017-05-17T16:20:47.693Z,69.20
2017-05-17T16:23:16.470Z,69.30
2017-05-17T16:25:44.913Z,68.70
2017-05-17T16:28:13.235Z,67.90
2017-05-17T16:30:41.696Z,68.50
2017-05-17T16:33:10.029Z,69.80
2017-05-17T16:35:38.374Z,69.20
2017-05-17T16:38:07.133Z,70.70
2017-05-17T16:40:35.478Z,69.50
2017-05-17T16:43:03.808Z,70.20
2017-05-17T16:45:32.308Z,70.40
2017-05-17T16:48:00.650Z,70.20
2017-05-17T16:50:29.745Z,70.70
2017-05-17T16:52:59.273Z,70.10
2017-05-17T16:55:27.631Z,70.70
2017-05-17T16:57:56.077Z,70.50
2017-05-17T17:00:24.443Z,71.00
2017-05-17T17:02:52.808Z,70.90
2017-05-17T17:05:21.142Z,71.20
2017-05-17T17:07:51.084Z,70.90
2017-05-17T17:10:19.416Z,71.30
2017-05-17T17:12:47.744Z,71.90
2017-05-17T17:15:16.266Z,72.20
2017-05-17T17:17:54.879Z,72.10
2017-05-17T17:20:23.883Z,72.50
2017-05-17T17:22:52.218Z,72.50
2017-05-17T17:25:20.556Z,72.70
2017-05-17T17:27:50.818Z,72.70
2017-05-17T17:30:21.184Z,72.80
2017-05-17T17:32:51.545Z,72.80
2017-05-17T17:35:19.876Z,73.70
2017-05-17T17:37:48.215Z,73.90
2017-05-17T17:40:16.677Z,73.60
2017-05-17T17:42:45.132Z,73.10
2017-05-17T17:45:13.459Z,74.30
2017-05-17T17:47:41.820Z,73.20
2017-05-17T17:50:10.153Z,73.30
2017-05-17T17:52:38.696Z,73.70
2017-05-17T17:55:07.180Z,73.70
2017-05-17T17:57:35.529Z,73.60
2017-05-17T18:00:04.006Z,73.60
2017-05-17T18:02:32.694Z,73.50
2017-05-17T18:05:01.192Z,73.90
2017-05-17T18:07:29.528Z,74.30
2017-05-17T18:09:58.461Z,74.40
2017-05-17T18:12:27.060Z,75.00
2017-05-17T18:14:55.411Z,75.20
2017-05-17T18:17:23.864Z,75.00
2017-05-17T18:19:52.218Z,75.50
2017-05-17T18:22:20.610Z,76.00
2017-05-17T18:24:49.253Z,75.90
2017-05-17T18:27:17.601Z,76.10
2017-05-17T18:29:45.952Z,76.40
2017-05-17T18:32:14.395Z,76.60
2017-05-17T18:34:43.048Z,76.80
2017-05-17T18:37:11.547Z,76.50
2017-05-17T18:39:40.419Z,77.10
2017-05-17T18:42:08.888Z,77.40
2017-05-17T18:44:39.855Z,77.30
2017-05-17T18:47:08.780Z,77.30
2017-05-17T18:49:37.129Z,77.80
2017-05-17T18:52:06.592Z,77.80
2017-05-17T18:54:36.217Z,78.30
2017-05-17T18:57:04.753Z,79.00
2017-05-17T18:59:33.173Z,78.90
2017-05-17T19:02:02.010Z,79.30
2017-05-17T19:04:30.362Z,79.10
2017-05-17T19:06:58.705Z,79.70
2017-05-17T19:09:27.964Z,79.60
2017-05-17T19:11:56.498Z,80.10
2017-05-17T19:14:24.844Z,80.10
2017-05-17T19:16:53.416Z,80.40
2017-05-17T19:19:21.905Z,80.60
2017-05-17T19:21:50.300Z,80.90
2017-05-17T19:24:18.890Z,80.90
2017-05-17T19:26:48.106Z,81.00
2017-05-17T19:29:16.480Z,81.20
2017-05-17T19:31:45.011Z,81.30
2017-05-17T19:34:13.377Z,81.60
2017-05-17T19:36:41.724Z,81.60
2017-05-17T19:39:10.135Z,81.80
2017-05-17T19:41:38.483Z,82.50
2017-05-17T19:44:06.827Z,82.40
2017-05-17T19:46:35.444Z,82.50
2017-05-17T19:49:03.951Z,82.40
2017-05-17T19:51:32.280Z,83.10
2017-05-17T19:54:01.713Z,83.40
2017-05-17T19:56:30.043Z,83.90
2017-05-17T19:58:58.374Z,83.80
2017-05-17T20:01:27.149Z,84.20
2017-05-17T20:03:55.635Z,84.50
2017-05-17T20:06:23.966Z,84.60
2017-05-17T20:08:52.341Z,84.50
2017-05-17T20:11:20.700Z,84.40
2017-05-17T20:13:49.036Z,84.90
2017-05-17T20:16:17.847Z,85.00
2017-05-17T20:18:46.411Z,85.10
2017-05-17T20:21:14.813Z,85.20
2017-05-17T20:23:43.432Z,85.30
2017-05-17T20:26:11.771Z,85.40
2017-05-17T20:28:40.101Z,85.10
2017-05-17T20:31:09.394Z,85.40
2017-05-17T20:33:38.538Z,85.50
2017-05-17T20:36:07.662Z,85.00
2017-05-17T20:38:36.386Z,85.40
2017-05-17T20:41:05.691Z,85.10
2017-05-17T20:43:34.144Z,85.40
2017-05-17T20:46:02.546Z,85.20
2017-05-17T20:48:31.633Z,85.40
2017-05-17T20:51:00.723Z,85.40
2017-05-17T20:53:29.944Z,85.30
2017-05-17T20:55:58.297Z,85.30
2017-05-17T20:58:27.395Z,85.80
2017-05-17T21:00:56.628Z,85.70
2017-05-17T21:03:24.973Z,85.40
2017-05-17T21:05:54.069Z,85.60
2017-05-17T21:08:23.280Z,85.70
2017-05-17T21:10:52.354Z,85.80
2017-05-17T21:13:20.735Z,85.90
2017-05-17T21:15:49.257Z,86.20
2017-05-17T21:18:17.607Z,86.00
2017-05-17T21:20:46.689Z,86.20
2017-05-17T21:23:15.072Z,86.10
2017-05-17T21:25:44.226Z,86.30
2017-05-17T21:28:12.578Z,86.90
2017-05-17T21:30:41.363Z,86.70
2017-05-17T21:33:09.721Z,86.80
2017-05-17T21:35:39.587Z,86.80
2017-05-17T21:38:08.087Z,87.00
2017-05-17T21:40:36.416Z,87.00
2017-05-17T21:43:04.769Z,87.20
2017-05-17T21:45:33.272Z,87.30
2017-05-17T21:48:02.708Z,87.20
2017-05-17T21:50:31.052Z,87.80
2017-05-17T21:52:59.732Z,87.70
2017-05-17T21:55:28.056Z,87.90
2017-05-17T21:57:56.429Z,88.40
2017-05-17T22:00:24.885Z,88.40
2017-05-17T22:02:53.214Z,88.10
2017-05-17T22:05:21.556Z,88.40
2017-05-17T22:07:49.928Z,88.50
2017-05-17T22:10:18.281Z,88.00
2017-05-17T22:12:46.618Z,88.30
2017-05-17T22:15:15.025Z,88.40
2017-05-17T22:17:44.093Z,88.50
2017-05-17T22:20:12.424Z,88.80
2017-05-17T22:22:40.981Z,88.70
2017-05-17T22:25:09.351Z,89.20
2017-05-17T22:27:39.342Z,88.60
2017-05-17T22:30:07.758Z,88.60
2017-05-17T22:32:36.102Z,88.60
2017-05-17T22:35:04.438Z,88.70
2017-05-17T22:37:33.090Z,88.50
2017-05-17T22:40:02.156Z,88.50
2017-05-17T22:42:30.488Z,88.90
2017-05-17T22:44:58.873Z,88.90
2017-05-17T22:47:27.204Z,89.00
2017-05-17T22:49:55.547Z,89.00
2017-05-17T22:52:23.972Z,89.00
2017-05-17T22:54:53.053Z,88.90
2017-05-17T22:57:21.376Z,88.80
2017-05-17T22:59:49.831Z,88.80
2017-05-17T23:02:18.905Z,88.70
2017-05-17T23:04:47.253Z,88.60
2017-05-17T23:07:15.706Z,88.80
2017-05-17T23:09:44.041Z,88.80
2017-05-17T23:12:12.361Z,88.70
2017-05-17T23:14:40.816Z,88.60
2017-05-17T23:17:09.899Z,88.60
2017-05-17T23:19:38.974Z,88.60
2017-05-17T23:22:07.363Z,89.20
2017-05-17T23:24:35.709Z,88.80
2017-05-17T23:27:04.048Z,88.90
2017-05-17T23:29:32.552Z,89.00
2017-05-17T23:32:00.897Z,88.90
2017-05-17T23:34:29.272Z,89.20
2017-05-17T23:36:57.802Z,90.00
2017-05-17T23:39:26.126Z,89.50
2017-05-17T23:41:54.473Z,89.50
2017-05-17T23:44:22.933Z,89.60
2017-05-17T23:46:51.295Z,89.40
2017-05-17T23:49:19.640Z,89.70
2017-05-17T23:51:48.101Z,89.90
2017-05-17T23:54:16.473Z,89.70
2017-05-17T23:56:44.885Z,90.30
2017-05-17T23:59:13.282Z,89.90
